Aeroporto :







RITROVATECI SU...

 
LOGIN :

Iscrizione | Disclaimer

   EN    FR    IT 

 









Sommario :    VFR   VFR Marginale   IFR   IFR Intensivo   IFR Molto Intensivo
Visibilità : 
Base nubi : 
>= 8 km
>= 3000ft
5 / 8 km
1000 / 3000 ft
1500m / 5 km
500 / 1000 ft
800 / 1500m
200 / 500 ft
< 800m
< 200 ft
Simboli :   Temporali  Nebbia  Neve Forte  Precipitazioni Forti  Vento > 20 kt






- Altitudine del aeroporto : 1270 ft
- Codice IATA : YMT


CYMT - Chapais

ULTIMO METAR :
  • 120600Z AUTO 33002KT 4SM -SN OVC023 M14/M16 A3016 RMK SLP249

METARs OBSOLETI :
  • 120549Z AUTO 33003KT 5SM -SN OVC023 M14/M16 A3016 RMK SLP251
  • 120527Z AUTO 33003KT 6SM -SN OVC023 M15/M16 A3017 RMK SLP253
  • 120519Z AUTO 33003KT 5SM -SN OVC023 M15/M16 A3017 RMK SLP253
  • 120514Z AUTO 32003KT 6SM -SN OVC023 M15/M16 A3017 RMK SLP253
  • 120458Z AUTO 33003KT 7SM -SN OVC025 M15/M17 A3018 RMK SLP257
  • 120442Z AUTO 00000KT 5SM -SN OVC025 M15/M17 A3018 RMK SLP259
  • 120400Z AUTO 31003KT 9SM -SN OVC027 M15/M17 A3019 RMK SLP262
  • 120317Z AUTO 00000KT 6SM -SN OVC031 M15/M17 A3020 RMK SLP266

Previsioni scadute.



MetMap, La meteo Aeronautica in un colpo d'occhio ! - Copyright ORBIFLY Dicembre 2007 - Disclaimer

ORBIFLY MET'MAP TEAM :

Programmazione e sviluppo : Alexandra Zaïnal
Concezione e sviluppo : Baudouin d'Aumeries
Co-Programmazione e sviluppo : Marc-Olivier Méhu
Supporto tecnico e logistico : Manuel Goepfert
Aiuto per la traduzione : Arnaldo La Scala

Contatto : metmap@orbifly.com




FONTI E CREDITI :

   NOAA